Terminal Aerodrome Forecast
Issued by NWS Upton, NY

Home | Current Version | Previous Version | Text Only | Print | Product List | Glossary On
Versions: 1 2 3 4 5 6 7 8 9 10 11 12 13 14 15 16 17 18 19 20 21 22 23 24 25 26 27
000
FTUS41 KOKX 230800 AAA
TAFJFK
TAF AMD
KJFK 230833Z 2309/2412 22008KT P6SM FEW250
     FM231600 18013KT P6SM SCT050 BKN250 PROB30 2323/2403 5SM TSRA
      BKN050CB
     FM240300 21007KT P6SM SCT050 BKN250 PROB30 2403/2407 5SM TSRA
      BKN050CB
     FM240700 VRB05KT P6SM BKN120
     FM240900 33006KT P6SM BKN200=

USA.gov is the U.S. government's official web portal to all federal, state and local government web resources and services.